Flight Briefing for CPX236

Departure Arrival
Washington Dulles International Airport (KIAD)
Click to view FAA NOTAMS
March Air Reserve Base (KRIV)
Click to view FAA NOTAMS
Departure Time Arrival Time
N/A N/A
Aircraft Distance
B767-300BDSF 1970nm
Departure METAR Arrival METAR
KIAD 271052Z 33004KT 10SM BKN048 BKN140 22/17 A2998 RMK AO2 SLP148 T02170172 KRIV 270958Z AUTO 00000KT 10SM SCT060 09/09 A2995 RMK AO2 SLP141 T00870087
Suggested Route
BUNZZ3 RAMAY Q72 HACKS J149 EMPTY J80 SAAGS J80 MCI J24 SLN J102 LAA J102 GUP J96 PKE J78 TRM ARKOE1


View recent IFR Routes data
Notes



Charts and Procedures

Charts for KIAD
No chart available
Charts for KRIV
No chart available

Windy.com Weather Map